createdAt,value
2023-03-15T00:01:18.631Z,8.20
2023-03-15T00:03:48.139Z,10.20
2023-03-15T00:06:17.765Z,10.27
2023-03-15T00:08:48.013Z,7.50
2023-03-15T00:11:17.831Z,8.67
2023-03-15T00:13:48.534Z,9.50
2023-03-15T00:16:17.879Z,7.97
2023-03-15T00:18:47.386Z,11.97
2023-03-15T00:21:16.465Z,14.83
2023-03-15T00:23:45.217Z,9.57
2023-03-15T00:26:14.504Z,12.60
2023-03-15T00:28:43.954Z,5.57
2023-03-15T00:31:17.915Z,7.90
2023-03-15T00:33:47.910Z,7.93
2023-03-15T00:36:17.726Z,6.50
2023-03-15T00:38:46.641Z,8.30
2023-03-15T00:41:17.741Z,5.53
2023-03-15T00:43:47.654Z,8.00
2023-03-15T00:46:20.214Z,6.87
2023-03-15T00:48:50.054Z,9.47
2023-03-15T00:51:21.291Z,6.43
2023-03-15T00:53:51.816Z,4.53
2023-03-15T00:56:22.458Z,7.33
2023-03-15T00:58:52.884Z,8.53
2023-03-15T01:01:24.945Z,10.80
2023-03-15T01:03:54.646Z,8.23
2023-03-15T01:06:25.001Z,7.53
2023-03-15T01:08:55.943Z,6.30
2023-03-15T01:11:26.644Z,10.13
2023-03-15T01:13:57.359Z,7.67
2023-03-15T01:16:28.276Z,15.17
2023-03-15T01:18:57.795Z,8.73
2023-03-15T01:21:27.618Z,8.80
2023-03-15T01:23:56.576Z,10.80
2023-03-15T01:26:25.517Z,5.07
2023-03-15T01:28:55.147Z,8.87
2023-03-15T01:31:25.705Z,9.37
2023-03-15T01:33:56.408Z,6.90
2023-03-15T01:36:25.939Z,13.47
2023-03-15T01:38:55.288Z,7.20
2023-03-15T01:41:32.591Z,11.80
2023-03-15T01:44:01.403Z,5.77
2023-03-15T01:46:34.315Z,7.27
2023-03-15T01:49:22.950Z,15.93
2023-03-15T01:51:55.508Z,15.17
2023-03-15T01:54:30.929Z,13.30
2023-03-15T01:57:03.244Z,7.50
2023-03-15T01:59:36.686Z,6.73
2023-03-15T02:02:07.569Z,10.40
2023-03-15T02:04:46.618Z,11.73
2023-03-15T02:07:19.112Z,8.53
2023-03-15T02:09:56.803Z,10.57
2023-03-15T02:12:26.680Z,7.23
2023-03-15T02:14:56.019Z,8.67
2023-03-15T02:17:35.061Z,10.47
2023-03-15T02:20:19.188Z,12.13
2023-03-15T02:22:55.318Z,10.93
2023-03-15T02:25:35.595Z,9.63
2023-03-15T02:28:09.455Z,4.47
2023-03-15T02:30:38.582Z,14.43
2023-03-15T02:33:12.264Z,6.27
2023-03-15T02:35:41.133Z,8.70
2023-03-15T02:38:09.943Z,8.17
2023-03-15T02:40:39.183Z,10.03
2023-03-15T02:43:16.996Z,6.77
2023-03-15T02:45:47.183Z,9.77
2023-03-15T02:48:16.907Z,15.27
2023-03-15T02:50:45.712Z,6.57
2023-03-15T02:53:14.644Z,11.33
2023-03-15T02:55:43.489Z,8.00
2023-03-15T02:58:13.615Z,11.43
2023-03-15T03:00:42.476Z,9.73
2023-03-15T03:03:11.746Z,10.13
2023-03-15T03:05:40.670Z,9.27
2023-03-15T03:08:09.524Z,9.17
2023-03-15T03:10:39.070Z,15.03
2023-03-15T03:13:08.380Z,4.97
2023-03-15T03:15:45.548Z,8.17
2023-03-15T03:18:16.098Z,9.77
2023-03-15T03:20:46.138Z,14.67
2023-03-15T03:23:15.113Z,6.53
2023-03-15T03:25:45.722Z,9.57
2023-03-15T03:28:14.706Z,10.30
2023-03-15T03:30:45.351Z,8.07
2023-03-15T03:33:16.917Z,7.10
2023-03-15T03:35:46.317Z,7.73
2023-03-15T03:38:15.485Z,6.40
2023-03-15T03:40:49.101Z,6.83
2023-03-15T03:43:18.503Z,11.30
2023-03-15T03:45:49.709Z,11.20
2023-03-15T03:48:19.301Z,7.53
2023-03-15T03:50:48.078Z,9.07
2023-03-15T03:53:16.902Z,6.40
2023-03-15T03:55:46.527Z,8.20
2023-03-15T03:58:19.527Z,7.27
2023-03-15T04:00:55.419Z,13.20
2023-03-15T04:03:28.293Z,11.73
2023-03-15T04:06:07.572Z,6.50
2023-03-15T04:08:41.749Z,6.60
2023-03-15T04:11:17.762Z,8.17
2023-03-15T04:13:51.870Z,11.77
2023-03-15T04:16:24.767Z,16.80
2023-03-15T04:19:01.876Z,7.77
2023-03-15T04:21:33.582Z,6.97
2023-03-15T04:24:16.612Z,6.10
2023-03-15T04:27:04.028Z,12.27
2023-03-15T04:30:05.443Z,10.37
2023-03-15T04:32:36.255Z,8.83
2023-03-15T04:35:28.042Z,10.40
2023-03-15T04:38:28.034Z,10.00
2023-03-15T04:41:15.613Z,7.20
2023-03-15T04:44:10.679Z,11.97
2023-03-15T04:46:45.663Z,13.90
2023-03-15T04:49:44.993Z,7.87
2023-03-15T04:52:35.778Z,9.80
2023-03-15T04:55:23.388Z,12.20
2023-03-15T04:58:16.271Z,8.40
2023-03-15T05:00:57.097Z,11.07
2023-03-15T05:03:38.583Z,12.90
2023-03-15T05:06:19.711Z,8.73
2023-03-15T05:09:08.732Z,7.20
2023-03-15T05:11:56.416Z,11.50
2023-03-15T05:14:37.306Z,16.40
2023-03-15T05:17:15.441Z,8.37
2023-03-15T05:19:47.189Z,8.90
2023-03-15T05:22:50.463Z,9.73
2023-03-15T05:25:31.481Z,6.53
2023-03-15T05:28:18.194Z,10.27
2023-03-15T05:31:05.493Z,5.50
2023-03-15T05:33:56.551Z,8.73
2023-03-15T05:36:48.143Z,11.93
2023-03-15T05:39:23.063Z,7.33
2023-03-15T05:41:57.566Z,7.53
2023-03-15T05:44:35.688Z,10.03
2023-03-15T05:47:26.183Z,10.50
2023-03-15T05:50:11.090Z,9.00
2023-03-15T05:52:52.240Z,7.43
2023-03-15T05:55:29.878Z,6.90
2023-03-15T05:58:22.077Z,11.53
2023-03-15T06:01:14.120Z,15.60
2023-03-15T06:04:01.045Z,8.97
2023-03-15T06:06:33.876Z,12.30
2023-03-15T06:09:04.408Z,7.23
2023-03-15T06:11:34.650Z,8.10
2023-03-15T06:14:04.098Z,8.40
2023-03-15T06:16:58.991Z,11.73
2023-03-15T06:19:28.675Z,9.17
2023-03-15T06:21:57.594Z,12.77
2023-03-15T06:24:43.813Z,6.53
2023-03-15T06:27:14.113Z,7.27
2023-03-15T06:29:43.086Z,10.63
2023-03-15T06:32:12.155Z,9.77
2023-03-15T06:34:43.616Z,10.57
2023-03-15T06:37:22.736Z,13.77
2023-03-15T06:39:58.571Z,11.23
2023-03-15T06:42:30.123Z,6.70
2023-03-15T06:44:58.930Z,11.60
2023-03-15T06:47:27.714Z,8.93
2023-03-15T06:49:57.018Z,10.87
2023-03-15T06:52:25.995Z,7.00
2023-03-15T06:54:54.916Z,7.53
2023-03-15T06:57:23.983Z,9.90
2023-03-15T06:59:54.702Z,15.93
2023-03-15T07:02:23.599Z,11.13
2023-03-15T07:04:52.495Z,7.37
2023-03-15T07:07:21.306Z,8.80
2023-03-15T07:09:50.123Z,9.90
2023-03-15T07:12:18.914Z,8.00
2023-03-15T07:14:47.785Z,16.57
2023-03-15T07:17:18.003Z,15.47
2023-03-15T07:19:55.730Z,7.40
2023-03-15T07:22:25.238Z,10.70
2023-03-15T07:24:54.250Z,8.43
2023-03-15T07:27:23.111Z,10.67
2023-03-15T07:29:51.831Z,7.83
2023-03-15T07:32:22.276Z,14.57
2023-03-15T07:34:51.171Z,12.93
2023-03-15T07:37:20.069Z,13.17
2023-03-15T07:39:48.986Z,7.33
2023-03-15T07:42:17.763Z,10.63
2023-03-15T07:44:52.013Z,11.13
2023-03-15T07:47:22.210Z,12.47
2023-03-15T07:49:51.052Z,9.00
2023-03-15T07:52:20.568Z,8.40
2023-03-15T07:54:49.480Z,8.30
2023-03-15T07:57:18.346Z,7.93
2023-03-15T07:59:47.079Z,12.03
2023-03-15T08:02:16.719Z,11.87
2023-03-15T08:04:46.976Z,18.97
2023-03-15T08:07:15.693Z,9.10
2023-03-15T08:09:44.946Z,10.40
2023-03-15T08:12:13.758Z,11.37
2023-03-15T08:14:42.529Z,9.93
2023-03-15T08:17:13.146Z,9.23
2023-03-15T08:19:42.031Z,12.97
2023-03-15T08:22:12.818Z,13.93
2023-03-15T08:24:41.598Z,10.70
2023-03-15T08:27:11.151Z,10.60
2023-03-15T08:29:40.038Z,8.13
2023-03-15T08:32:09.544Z,7.77
2023-03-15T08:34:38.864Z,11.20
2023-03-15T08:37:07.761Z,8.13
2023-03-15T08:39:37.977Z,8.03
2023-03-15T08:42:07.302Z,7.40
2023-03-15T08:44:36.414Z,7.83
2023-03-15T08:47:06.253Z,9.20
2023-03-15T08:49:35.289Z,8.53
2023-03-15T08:52:04.197Z,6.50
2023-03-15T08:54:33.038Z,6.10
2023-03-15T08:57:04.046Z,6.10
2023-03-15T08:59:32.951Z,12.63
2023-03-15T09:02:02.094Z,5.73
2023-03-15T09:04:31.087Z,10.50
2023-03-15T09:07:00.127Z,7.70
2023-03-15T09:09:29.028Z,7.90
2023-03-15T09:11:57.929Z,10.27
2023-03-15T09:14:28.150Z,6.53
2023-03-15T09:16:57.280Z,10.07
2023-03-15T09:19:26.235Z,9.57
2023-03-15T09:21:55.876Z,9.33
2023-03-15T09:24:24.837Z,8.47
2023-03-15T09:26:53.638Z,8.63
2023-03-15T09:29:22.469Z,6.97
2023-03-15T09:31:52.644Z,9.53
2023-03-15T09:34:21.900Z,8.97
2023-03-15T09:36:53.142Z,11.50
2023-03-15T09:39:22.474Z,10.80
2023-03-15T09:41:53.767Z,7.30
2023-03-15T09:44:40.467Z,9.20
2023-03-15T09:47:27.143Z,12.53
2023-03-15T09:50:00.461Z,9.97
2023-03-15T09:52:38.579Z,7.80
2023-03-15T09:55:15.823Z,8.60
2023-03-15T09:57:49.664Z,7.87
2023-03-15T10:00:22.818Z,6.93
2023-03-15T10:03:00.695Z,5.43
2023-03-15T10:05:40.001Z,5.67
2023-03-15T10:08:12.824Z,7.43
2023-03-15T10:10:47.744Z,7.03
2023-03-15T10:13:35.106Z,5.30
2023-03-15T10:16:15.804Z,9.57
2023-03-15T10:18:57.925Z,7.53
2023-03-15T10:21:39.290Z,3.13
2023-03-15T10:24:17.081Z,5.17
2023-03-15T10:29:18.634Z,7.37
2023-03-15T10:31:48.396Z,3.70
2023-03-15T10:34:19.553Z,4.77
2023-03-15T10:36:54.208Z,6.17
2023-03-15T10:39:23.660Z,6.33
2023-03-15T10:41:52.995Z,5.13
2023-03-15T10:44:24.292Z,3.90
2023-03-15T10:47:21.459Z,6.57
2023-03-15T10:49:57.518Z,7.03
2023-03-15T10:52:29.514Z,7.47
2023-03-15T10:55:02.502Z,5.03
2023-03-15T10:57:39.144Z,5.53
2023-03-15T11:00:26.899Z,4.23
2023-03-15T11:03:03.950Z,3.73
2023-03-15T11:05:41.531Z,6.67
2023-03-15T11:08:15.286Z,3.77
2023-03-15T11:10:45.435Z,2.27
2023-03-15T11:13:21.806Z,4.33
2023-03-15T11:16:04.003Z,7.87
2023-03-15T11:18:38.567Z,4.00
2023-03-15T11:21:14.140Z,8.00
2023-03-15T11:23:45.790Z,4.30
2023-03-15T11:26:31.407Z,5.47
2023-03-15T11:29:05.298Z,4.77
2023-03-15T11:31:35.271Z,5.33
2023-03-15T11:34:08.430Z,3.67
2023-03-15T11:36:44.047Z,4.37
2023-03-15T11:39:16.013Z,3.13
2023-03-15T11:41:52.373Z,3.17
2023-03-15T11:44:29.796Z,5.93
2023-03-15T11:47:04.903Z,8.63
2023-03-15T11:49:38.708Z,5.07
2023-03-15T11:52:09.969Z,2.50
2023-03-15T11:54:39.006Z,6.60
2023-03-15T11:57:28.609Z,3.90
2023-03-15T12:00:15.899Z,2.57
2023-03-15T12:02:51.269Z,3.53
2023-03-15T12:05:46.107Z,2.37
2023-03-15T12:08:25.102Z,2.17
2023-03-15T12:10:54.367Z,5.63
2023-03-15T12:13:29.133Z,5.03
2023-03-15T12:15:58.619Z,4.33
2023-03-15T12:18:32.341Z,1.87
2023-03-15T12:21:14.192Z,5.97
2023-03-15T12:23:49.661Z,2.20
2023-03-15T12:26:26.675Z,4.27
2023-03-15T12:29:07.708Z,3.97
2023-03-15T12:31:52.517Z,3.77
2023-03-15T12:34:38.222Z,3.57
2023-03-15T12:37:10.388Z,6.87
2023-03-15T12:39:43.983Z,5.17
2023-03-15T12:42:48.801Z,6.13
2023-03-15T12:45:40.224Z,7.87
2023-03-15T12:48:29.036Z,4.10
2023-03-15T12:51:14.575Z,6.20
2023-03-15T12:53:49.114Z,5.47
2023-03-15T12:56:44.355Z,3.87
2023-03-15T12:59:37.008Z,9.00
2023-03-15T13:02:42.089Z,4.40
2023-03-15T13:05:19.970Z,3.30
2023-03-15T13:08:05.049Z,9.53
2023-03-15T13:10:48.205Z,3.40
2023-03-15T13:13:40.095Z,4.43
2023-03-15T13:16:32.009Z,3.53
2023-03-15T13:19:05.597Z,2.37
2023-03-15T13:21:41.168Z,6.10
2023-03-15T13:24:17.352Z,6.13
2023-03-15T13:26:56.389Z,3.10
2023-03-15T13:29:30.990Z,4.33
2023-03-15T13:32:09.919Z,2.77
2023-03-15T13:34:38.930Z,4.43
2023-03-15T13:37:14.983Z,5.73
2023-03-15T13:39:55.718Z,6.53
2023-03-15T13:42:25.943Z,3.50
2023-03-15T13:45:13.087Z,3.80
2023-03-15T13:47:42.793Z,2.83
2023-03-15T13:50:16.165Z,3.13
2023-03-15T13:52:45.516Z,3.67
2023-03-15T13:55:16.141Z,8.10
2023-03-15T13:57:45.091Z,3.57
2023-03-15T14:00:19.285Z,1.83
2023-03-15T14:02:52.238Z,3.13
2023-03-15T14:05:27.256Z,2.73
2023-03-15T14:08:02.793Z,5.57
2023-03-15T14:10:33.149Z,2.47
2023-03-15T14:13:22.367Z,6.40
2023-03-15T14:15:57.661Z,6.33
2023-03-15T14:18:31.914Z,3.13
2023-03-15T14:21:03.910Z,4.47
2023-03-15T14:23:32.836Z,7.23
2023-03-15T14:26:14.789Z,5.40
2023-03-15T14:28:49.584Z,8.83
2023-03-15T14:31:26.842Z,3.33
2023-03-15T14:34:00.797Z,5.17
2023-03-15T14:36:32.983Z,5.50
2023-03-15T14:39:01.870Z,5.30
2023-03-15T14:41:33.963Z,2.53
2023-03-15T14:44:03.274Z,5.63
2023-03-15T14:46:33.561Z,1.53
2023-03-15T14:49:02.665Z,3.60
2023-03-15T14:51:33.000Z,2.83
2023-03-15T14:54:01.920Z,2.07
2023-03-15T14:56:31.084Z,4.73
2023-03-15T14:59:01.803Z,4.03
2023-03-15T15:01:33.561Z,3.73
2023-03-15T15:04:04.104Z,11.70
2023-03-15T15:06:33.540Z,2.93
2023-03-15T15:09:05.866Z,2.13
2023-03-15T15:11:34.982Z,4.37
2023-03-15T15:14:03.684Z,3.93
2023-03-15T15:16:33.899Z,4.80
2023-03-15T15:19:02.639Z,3.13
2023-03-15T15:21:34.172Z,3.57
2023-03-15T15:24:04.092Z,4.90
2023-03-15T15:26:34.542Z,4.50
2023-03-15T15:29:03.384Z,6.80
2023-03-15T15:31:34.871Z,4.33
2023-03-15T15:34:03.819Z,4.33
2023-03-15T15:36:35.596Z,3.10
2023-03-15T15:39:07.444Z,3.67
2023-03-15T15:41:36.669Z,5.50
2023-03-15T15:44:05.556Z,4.00
2023-03-15T15:46:35.834Z,6.20
2023-03-15T15:49:04.605Z,2.97
2023-03-15T15:51:41.928Z,3.93
2023-03-15T15:54:15.951Z,5.10
2023-03-15T15:56:49.283Z,7.53
2023-03-15T15:59:19.321Z,8.93
2023-03-15T16:02:00.007Z,3.20
2023-03-15T16:04:29.914Z,4.27
2023-03-15T16:07:01.626Z,6.83
2023-03-15T16:09:33.293Z,4.77
2023-03-15T16:12:02.150Z,6.07
2023-03-15T16:14:30.871Z,4.93
2023-03-15T16:17:01.352Z,9.20
2023-03-15T16:19:30.187Z,9.53
2023-03-15T16:21:58.942Z,8.23
2023-03-15T16:24:30.229Z,7.90
2023-03-15T16:27:02.210Z,5.93
2023-03-15T16:29:37.491Z,4.77
2023-03-15T16:32:17.964Z,14.57
2023-03-15T16:34:52.777Z,8.17
2023-03-15T16:37:24.365Z,5.43
2023-03-15T16:39:56.512Z,3.57
2023-03-15T16:42:26.045Z,11.67
2023-03-15T16:44:54.924Z,10.67
2023-03-15T16:47:25.039Z,9.67
2023-03-15T16:49:53.811Z,9.80
2023-03-15T16:52:22.551Z,8.57
2023-03-15T16:54:51.336Z,8.90
2023-03-15T16:57:23.038Z,14.23
2023-03-15T16:59:52.614Z,13.47
2023-03-15T17:02:22.904Z,16.67
2023-03-15T17:04:53.790Z,13.93
2023-03-15T17:07:27.735Z,14.33
2023-03-15T17:09:56.907Z,15.40
2023-03-15T17:12:27.997Z,14.97
2023-03-15T17:15:00.008Z,15.70
2023-03-15T17:17:33.142Z,16.97
2023-03-15T17:20:10.088Z,16.73
2023-03-15T17:22:39.280Z,24.17
2023-03-15T17:25:08.538Z,35.50
2023-03-15T17:27:40.733Z,26.30
2023-03-15T17:30:18.260Z,65.60
2023-03-15T17:32:47.659Z,17.40
2023-03-15T17:35:20.172Z,20.87
2023-03-15T17:37:49.383Z,18.10
2023-03-15T17:40:25.051Z,22.47
2023-03-15T17:42:55.186Z,32.13
2023-03-15T17:45:26.383Z,58.87
2023-03-15T17:47:55.251Z,41.97
2023-03-15T17:50:28.526Z,32.10
2023-03-15T17:52:59.283Z,22.83
2023-03-15T17:55:29.693Z,18.53
2023-03-15T17:57:58.673Z,19.23
2023-03-15T18:00:27.662Z,16.07
2023-03-15T18:02:56.859Z,22.47
2023-03-15T18:05:29.966Z,21.87
2023-03-15T18:08:00.259Z,26.47
2023-03-15T18:10:34.587Z,33.47
2023-03-15T18:13:04.427Z,36.00
2023-03-15T18:15:34.154Z,44.97
2023-03-15T18:18:05.736Z,34.80
2023-03-15T18:20:36.899Z,36.63
2023-03-15T18:23:06.247Z,33.43
2023-03-15T18:25:36.494Z,26.10
2023-03-15T18:28:05.417Z,26.53
2023-03-15T18:30:35.633Z,24.33
2023-03-15T18:33:05.876Z,19.90
2023-03-15T18:35:38.116Z,16.27
2023-03-15T18:38:07.041Z,17.17
2023-03-15T18:40:36.187Z,15.03
2023-03-15T18:43:05.605Z,15.17
2023-03-15T18:45:36.500Z,14.73
2023-03-15T18:48:05.843Z,20.33
2023-03-15T18:50:35.758Z,20.27
2023-03-15T18:53:06.449Z,17.43
2023-03-15T18:55:35.917Z,23.77
2023-03-15T18:58:08.965Z,31.07
2023-03-15T19:00:37.968Z,33.37
2023-03-15T19:03:07.566Z,30.67
2023-03-15T19:05:38.395Z,32.90
2023-03-15T19:08:08.652Z,36.67
2023-03-15T19:10:37.498Z,35.80
2023-03-15T19:13:06.266Z,35.23
2023-03-15T19:15:35.043Z,28.93
2023-03-15T19:18:03.851Z,32.73
2023-03-15T19:20:32.661Z,33.07
2023-03-15T19:23:01.465Z,28.63
2023-03-15T19:25:31.693Z,35.43
2023-03-15T19:28:00.564Z,46.83
2023-03-15T19:30:29.496Z,55.67
2023-03-15T19:32:58.474Z,49.27
2023-03-15T19:35:27.810Z,52.13
2023-03-15T19:37:57.083Z,66.33
2023-03-15T19:40:25.958Z,59.57
2023-03-15T19:42:56.116Z,54.50
2023-03-15T19:45:24.983Z,74.83
2023-03-15T19:47:53.837Z,72.20
2023-03-15T19:50:22.923Z,52.90
2023-03-15T19:52:51.738Z,42.63
2023-03-15T19:55:21.672Z,39.40
2023-03-15T19:57:50.579Z,36.60
2023-03-15T20:00:23.350Z,42.00
2023-03-15T20:02:52.456Z,45.33
2023-03-15T20:05:22.318Z,47.30
2023-03-15T20:07:51.776Z,37.43
2023-03-15T20:10:21.536Z,38.60
2023-03-15T20:12:50.759Z,44.13
2023-03-15T20:15:21.278Z,41.77
2023-03-15T20:17:50.014Z,40.03
2023-03-15T20:20:19.608Z,47.10
2023-03-15T20:22:48.984Z,46.67
2023-03-15T20:25:20.119Z,44.93
2023-03-15T20:27:49.263Z,51.07
2023-03-15T20:30:21.358Z,54.60
2023-03-15T20:32:50.384Z,61.57
2023-03-15T20:35:19.292Z,66.80
2023-03-15T20:37:48.082Z,52.47
2023-03-15T20:40:17.635Z,52.50
2023-03-15T20:42:46.592Z,50.63
2023-03-15T20:45:15.640Z,61.07
2023-03-15T20:47:46.154Z,49.37
2023-03-15T20:50:14.940Z,55.83
2023-03-15T20:52:43.819Z,47.80
2023-03-15T20:55:13.674Z,52.13
2023-03-15T20:57:43.048Z,49.57
2023-03-15T21:00:18.291Z,44.17
2023-03-15T21:02:49.082Z,41.27
2023-03-15T21:05:18.885Z,139.03
2023-03-15T21:07:47.938Z,51.93
2023-03-15T21:10:17.233Z,56.23
2023-03-15T21:12:46.145Z,45.83
2023-03-15T21:15:18.902Z,46.43
2023-03-15T21:17:49.897Z,47.03
2023-03-15T21:20:19.296Z,51.63
2023-03-15T21:22:48.266Z,52.23
2023-03-15T21:25:17.188Z,52.20
2023-03-15T21:27:46.141Z,47.73
2023-03-15T21:30:15.135Z,46.10
2023-03-15T21:32:44.761Z,40.30
2023-03-15T21:35:17.298Z,46.97
2023-03-15T21:37:46.268Z,53.43
2023-03-15T21:40:16.188Z,54.77
2023-03-15T21:42:47.720Z,52.60
2023-03-15T21:45:16.829Z,45.27
2023-03-15T21:47:47.005Z,48.50
2023-03-15T21:50:17.569Z,50.97
2023-03-15T21:52:46.444Z,54.97
2023-03-15T21:55:15.673Z,50.13
2023-03-15T21:57:45.488Z,55.77
2023-03-15T22:00:16.128Z,61.67
2023-03-15T22:02:45.264Z,47.50
2023-03-15T22:05:14.457Z,53.37
2023-03-15T22:07:44.658Z,46.83
2023-03-15T22:10:14.359Z,46.20
2023-03-15T22:12:43.805Z,45.57
2023-03-15T22:15:13.425Z,46.73
2023-03-15T22:17:42.385Z,42.70
2023-03-15T22:20:16.485Z,43.43
2023-03-15T22:22:49.070Z,55.67
2023-03-15T22:25:18.498Z,47.27
2023-03-15T22:27:47.440Z,37.40
2023-03-15T22:30:17.814Z,43.50
2023-03-15T22:32:46.857Z,43.60
2023-03-15T22:35:18.037Z,45.57
2023-03-15T22:37:49.438Z,44.50
2023-03-15T22:40:18.754Z,39.07
2023-03-15T22:42:49.636Z,33.63
2023-03-15T22:45:18.699Z,35.57
2023-03-15T22:47:48.283Z,34.80
2023-03-15T22:50:17.822Z,38.13
2023-03-15T22:52:48.902Z,37.07
2023-03-15T22:55:19.145Z,31.53
2023-03-15T22:57:47.980Z,34.50
2023-03-15T23:00:22.270Z,33.70
2023-03-15T23:02:51.273Z,33.83
2023-03-15T23:05:21.311Z,40.27
2023-03-15T23:07:51.725Z,36.77
2023-03-15T23:10:21.118Z,34.53
2023-03-15T23:12:49.983Z,40.77
2023-03-15T23:15:18.893Z,36.17
2023-03-15T23:17:47.926Z,32.03
2023-03-15T23:20:18.836Z,31.33
2023-03-15T23:22:48.499Z,29.90
2023-03-15T23:25:20.849Z,26.33
2023-03-15T23:27:49.941Z,27.20
2023-03-15T23:30:18.989Z,33.70
2023-03-15T23:32:49.822Z,29.10
2023-03-15T23:35:18.775Z,29.73
2023-03-15T23:37:47.814Z,29.57
2023-03-15T23:40:17.876Z,30.80
2023-03-15T23:42:52.439Z,32.17
2023-03-15T23:45:21.401Z,33.63
2023-03-15T23:47:50.409Z,27.60
2023-03-15T23:50:19.387Z,31.57
2023-03-15T23:52:48.312Z,31.77
2023-03-15T23:55:17.338Z,26.20
2023-03-15T23:57:47.671Z,27.30
